sensor_id;sensor_type;location;lat;lon;timestamp;P1;durP1;ratioP1;P2;durP2;ratioP2
4021;SDS011;2025;48.260;16.432;2022-09-03T00:01:37;2.33;;;2.13;;
4021;SDS011;2025;48.260;16.432;2022-09-03T00:04:10;2.08;;;1.90;;
4021;SDS011;2025;48.260;16.432;2022-09-03T00:06:47;2.38;;;1.85;;
4021;SDS011;2025;48.260;16.432;2022-09-03T00:09:18;3.92;;;1.80;;
4021;SDS011;2025;48.260;16.432;2022-09-03T00:11:51;2.33;;;1.80;;
4021;SDS011;2025;48.260;16.432;2022-09-03T00:14:27;3.95;;;1.85;;
4021;SDS011;2025;48.260;16.432;2022-09-03T00:17:02;5.40;;;2.13;;
4021;SDS011;2025;48.260;16.432;2022-09-03T00:19:35;4.63;;;2.00;;
4021;SDS011;2025;48.260;16.432;2022-09-03T00:22:12;2.00;;;1.80;;
4021;SDS011;2025;48.260;16.432;2022-09-03T00:24:42;5.70;;;2.35;;
4021;SDS011;2025;48.260;16.432;2022-09-03T00:27:12;2.25;;;1.98;;
4021;SDS011;2025;48.260;16.432;2022-09-03T00:29:42;3.25;;;1.70;;
4021;SDS011;2025;48.260;16.432;2022-09-03T00:32:16;4.05;;;2.10;;
4021;SDS011;2025;48.260;16.432;2022-09-03T00:34:47;2.28;;;1.90;;
4021;SDS011;2025;48.260;16.432;2022-09-03T00:37:18;2.67;;;1.83;;
4021;SDS011;2025;48.260;16.432;2022-09-03T00:39:45;2.13;;;2.03;;
4021;SDS011;2025;48.260;16.432;2022-09-03T00:42:17;7.57;;;1.98;;
4021;SDS011;2025;48.260;16.432;2022-09-03T00:44:55;6.07;;;1.90;;
4021;SDS011;2025;48.260;16.432;2022-09-03T00:47:37;1.92;;;1.83;;
4021;SDS011;2025;48.260;16.432;2022-09-03T00:50:16;2.67;;;1.90;;
4021;SDS011;2025;48.260;16.432;2022-09-03T00:52:58;4.75;;;2.08;;
4021;SDS011;2025;48.260;16.432;2022-09-03T00:55:37;3.15;;;1.80;;
4021;SDS011;2025;48.260;16.432;2022-09-03T00:58:21;2.47;;;2.30;;
4021;SDS011;2025;48.260;16.432;2022-09-03T01:01:09;2.30;;;1.90;;
4021;SDS011;2025;48.260;16.432;2022-09-03T01:03:42;2.10;;;2.00;;
4021;SDS011;2025;48.260;16.432;2022-09-03T01:06:19;2.22;;;2.03;;
4021;SDS011;2025;48.260;16.432;2022-09-03T01:08:58;6.70;;;2.22;;
4021;SDS011;2025;48.260;16.432;2022-09-03T01:11:37;2.05;;;1.85;;
4021;SDS011;2025;48.260;16.432;2022-09-03T01:14:17;3.40;;;2.20;;
4021;SDS011;2025;48.260;16.432;2022-09-03T01:16:56;2.15;;;1.90;;
4021;SDS011;2025;48.260;16.432;2022-09-03T01:19:37;5.40;;;2.38;;
4021;SDS011;2025;48.260;16.432;2022-09-03T01:22:29;2.28;;;2.17;;
4021;SDS011;2025;48.260;16.432;2022-09-03T01:25:16;3.67;;;2.20;;
4021;SDS011;2025;48.260;16.432;2022-09-03T01:28:03;2.28;;;2.08;;
4021;SDS011;2025;48.260;16.432;2022-09-03T01:30:39;2.53;;;2.33;;
4021;SDS011;2025;48.260;16.432;2022-09-03T01:33:14;2.65;;;2.40;;
4021;SDS011;2025;48.260;16.432;2022-09-03T01:35:52;4.22;;;2.30;;
4021;SDS011;2025;48.260;16.432;2022-09-03T01:38:30;2.70;;;2.50;;
4021;SDS011;2025;48.260;16.432;2022-09-03T01:41:02;4.15;;;2.30;;
4021;SDS011;2025;48.260;16.432;2022-09-03T01:44:04;2.45;;;2.25;;
4021;SDS011;2025;48.260;16.432;2022-09-03T01:46:41;3.25;;;2.35;;
4021;SDS011;2025;48.260;16.432;2022-09-03T01:49:13;3.22;;;2.30;;
4021;SDS011;2025;48.260;16.432;2022-09-03T01:51:47;2.50;;;2.30;;
4021;SDS011;2025;48.260;16.432;2022-09-03T01:54:26;2.30;;;2.10;;
4021;SDS011;2025;48.260;16.432;2022-09-03T01:57:33;6.45;;;2.40;;
4021;SDS011;2025;48.260;16.432;2022-09-03T02:00:18;3.10;;;2.20;;
4021;SDS011;2025;48.260;16.432;2022-09-03T02:02:46;4.18;;;2.40;;
4021;SDS011;2025;48.260;16.432;2022-09-03T02:05:16;6.10;;;2.80;;
4021;SDS011;2025;48.260;16.432;2022-09-03T02:07:49;6.07;;;2.55;;
4021;SDS011;2025;48.260;16.432;2022-09-03T02:10:20;2.60;;;2.40;;
4021;SDS011;2025;48.260;16.432;2022-09-03T02:12:55;4.40;;;2.60;;
4021;SDS011;2025;48.260;16.432;2022-09-03T02:15:26;6.15;;;2.58;;
4021;SDS011;2025;48.260;16.432;2022-09-03T02:17:55;3.92;;;2.65;;
4021;SDS011;2025;48.260;16.432;2022-09-03T02:20:27;8.13;;;2.58;;
4021;SDS011;2025;48.260;16.432;2022-09-03T02:22:55;2.30;;;2.20;;
4021;SDS011;2025;48.260;16.432;2022-09-03T02:25:27;3.65;;;2.40;;
4021;SDS011;2025;48.260;16.432;2022-09-03T02:27:57;2.78;;;2.58;;
4021;SDS011;2025;48.260;16.432;2022-09-03T02:30:27;2.92;;;2.80;;
4021;SDS011;2025;48.260;16.432;2022-09-03T02:32:54;4.03;;;2.25;;
4021;SDS011;2025;48.260;16.432;2022-09-03T02:35:21;5.80;;;2.55;;
4021;SDS011;2025;48.260;16.432;2022-09-03T02:37:48;6.13;;;2.40;;
4021;SDS011;2025;48.260;16.432;2022-09-03T02:40:15;2.72;;;2.53;;
4021;SDS011;2025;48.260;16.432;2022-09-03T02:42:42;3.58;;;2.72;;
4021;SDS011;2025;48.260;16.432;2022-09-03T02:45:13;3.20;;;2.55;;
4021;SDS011;2025;48.260;16.432;2022-09-03T02:47:51;3.17;;;2.63;;
4021;SDS011;2025;48.260;16.432;2022-09-03T02:50:21;2.70;;;2.60;;
4021;SDS011;2025;48.260;16.432;2022-09-03T02:52:48;2.80;;;2.67;;
4021;SDS011;2025;48.260;16.432;2022-09-03T02:55:15;3.13;;;2.92;;
4021;SDS011;2025;48.260;16.432;2022-09-03T02:57:43;2.85;;;2.65;;
4021;SDS011;2025;48.260;16.432;2022-09-03T03:00:11;3.05;;;2.78;;
4021;SDS011;2025;48.260;16.432;2022-09-03T03:02:38;4.40;;;2.80;;
4021;SDS011;2025;48.260;16.432;2022-09-03T03:05:07;2.97;;;2.78;;
4021;SDS011;2025;48.260;16.432;2022-09-03T03:07:42;3.85;;;2.72;;
4021;SDS011;2025;48.260;16.432;2022-09-03T03:10:09;3.15;;;2.85;;
4021;SDS011;2025;48.260;16.432;2022-09-03T03:12:36;2.90;;;2.70;;
4021;SDS011;2025;48.260;16.432;2022-09-03T03:15:04;2.95;;;2.70;;
4021;SDS011;2025;48.260;16.432;2022-09-03T03:17:32;3.30;;;2.83;;
4021;SDS011;2025;48.260;16.432;2022-09-03T03:19:59;3.78;;;2.90;;
4021;SDS011;2025;48.260;16.432;2022-09-03T03:22:27;3.25;;;3.05;;
4021;SDS011;2025;48.260;16.432;2022-09-03T03:24:54;3.13;;;2.92;;
4021;SDS011;2025;48.260;16.432;2022-09-03T03:27:21;3.67;;;3.00;;
4021;SDS011;2025;48.260;16.432;2022-09-03T03:29:48;3.65;;;2.60;;
4021;SDS011;2025;48.260;16.432;2022-09-03T03:32:16;3.25;;;2.95;;
4021;SDS011;2025;48.260;16.432;2022-09-03T03:34:43;3.53;;;2.75;;
4021;SDS011;2025;48.260;16.432;2022-09-03T03:37:10;2.88;;;2.67;;
4021;SDS011;2025;48.260;16.432;2022-09-03T03:39:38;5.22;;;2.97;;
4021;SDS011;2025;48.260;16.432;2022-09-03T03:42:05;3.60;;;3.30;;
4021;SDS011;2025;48.260;16.432;2022-09-03T03:44:33;3.70;;;3.40;;
4021;SDS011;2025;48.260;16.432;2022-09-03T03:47:00;6.40;;;3.58;;
4021;SDS011;2025;48.260;16.432;2022-09-03T03:49:30;3.42;;;2.72;;
4021;SDS011;2025;48.260;16.432;2022-09-03T03:51:57;8.55;;;3.10;;
4021;SDS011;2025;48.260;16.432;2022-09-03T03:54:24;3.25;;;3.05;;
4021;SDS011;2025;48.260;16.432;2022-09-03T03:56:52;3.83;;;3.35;;
4021;SDS011;2025;48.260;16.432;2022-09-03T03:59:19;3.90;;;3.28;;
4021;SDS011;2025;48.260;16.432;2022-09-03T04:01:46;3.60;;;3.38;;
4021;SDS011;2025;48.260;16.432;2022-09-03T04:04:15;11.57;;;3.50;;
4021;SDS011;2025;48.260;16.432;2022-09-03T04:06:42;3.80;;;3.45;;
4021;SDS011;2025;48.260;16.432;2022-09-03T04:09:09;9.30;;;3.10;;
4021;SDS011;2025;48.260;16.432;2022-09-03T04:11:36;3.33;;;3.03;;
4021;SDS011;2025;48.260;16.432;2022-09-03T04:14:04;3.08;;;2.88;;
4021;SDS011;2025;48.260;16.432;2022-09-03T04:16:31;3.53;;;3.20;;
4021;SDS011;2025;48.260;16.432;2022-09-03T04:18:58;3.50;;;3.20;;
4021;SDS011;2025;48.260;16.432;2022-09-03T04:21:26;5.25;;;3.55;;
4021;SDS011;2025;48.260;16.432;2022-09-03T04:23:54;4.95;;;3.65;;
4021;SDS011;2025;48.260;16.432;2022-09-03T04:26:22;3.30;;;3.05;;
4021;SDS011;2025;48.260;16.432;2022-09-03T04:28:52;3.60;;;3.30;;
4021;SDS011;2025;48.260;16.432;2022-09-03T04:31:20;3.70;;;3.40;;
4021;SDS011;2025;48.260;16.432;2022-09-03T04:33:47;4.05;;;3.72;;
4021;SDS011;2025;48.260;16.432;2022-09-03T04:36:15;3.35;;;3.15;;
4021;SDS011;2025;48.260;16.432;2022-09-03T04:38:44;3.78;;;3.58;;
4021;SDS011;2025;48.260;16.432;2022-09-03T04:41:13;3.65;;;3.45;;
4021;SDS011;2025;48.260;16.432;2022-09-03T04:43:42;4.10;;;3.80;;
4021;SDS011;2025;48.260;16.432;2022-09-03T04:46:11;7.82;;;4.18;;
4021;SDS011;2025;48.260;16.432;2022-09-03T04:48:40;4.00;;;3.65;;
4021;SDS011;2025;48.260;16.432;2022-09-03T04:51:08;4.72;;;4.32;;
4021;SDS011;2025;48.260;16.432;2022-09-03T04:53:38;6.38;;;3.72;;
4021;SDS011;2025;48.260;16.432;2022-09-03T04:56:10;4.35;;;4.05;;
4021;SDS011;2025;48.260;16.432;2022-09-03T04:58:38;4.10;;;3.75;;
4021;SDS011;2025;48.260;16.432;2022-09-03T05:01:07;5.28;;;3.90;;
4021;SDS011;2025;48.260;16.432;2022-09-03T05:03:35;5.22;;;3.97;;
4021;SDS011;2025;48.260;16.432;2022-09-03T05:06:04;4.30;;;3.97;;
4021;SDS011;2025;48.260;16.432;2022-09-03T05:08:32;4.50;;;4.15;;
4021;SDS011;2025;48.260;16.432;2022-09-03T05:11:01;4.40;;;4.00;;
4021;SDS011;2025;48.260;16.432;2022-09-03T05:13:29;5.18;;;3.63;;
4021;SDS011;2025;48.260;16.432;2022-09-03T05:15:58;4.22;;;3.80;;
4021;SDS011;2025;48.260;16.432;2022-09-03T05:18:26;3.67;;;3.38;;
4021;SDS011;2025;48.260;16.432;2022-09-03T05:20:57;6.10;;;3.67;;
4021;SDS011;2025;48.260;16.432;2022-09-03T05:23:26;5.25;;;3.38;;
4021;SDS011;2025;48.260;16.432;2022-09-03T05:25:55;4.43;;;3.70;;
4021;SDS011;2025;48.260;16.432;2022-09-03T05:28:23;11.38;;;3.65;;
4021;SDS011;2025;48.260;16.432;2022-09-03T05:31:01;5.93;;;3.40;;
4021;SDS011;2025;48.260;16.432;2022-09-03T05:33:32;3.75;;;3.45;;
4021;SDS011;2025;48.260;16.432;2022-09-03T05:35:59;3.80;;;3.50;;
4021;SDS011;2025;48.260;16.432;2022-09-03T05:38:29;3.58;;;3.35;;
4021;SDS011;2025;48.260;16.432;2022-09-03T05:40:57;5.03;;;3.60;;
4021;SDS011;2025;48.260;16.432;2022-09-03T05:43:24;5.30;;;3.33;;
4021;SDS011;2025;48.260;16.432;2022-09-03T05:45:55;7.45;;;3.03;;
4021;SDS011;2025;48.260;16.432;2022-09-03T05:48:24;3.67;;;3.25;;
4021;SDS011;2025;48.260;16.432;2022-09-03T05:50:57;7.65;;;2.85;;
4021;SDS011;2025;48.260;16.432;2022-09-03T05:53:25;4.43;;;3.10;;
4021;SDS011;2025;48.260;16.432;2022-09-03T05:55:56;4.43;;;3.30;;
4021;SDS011;2025;48.260;16.432;2022-09-03T05:58:24;8.05;;;3.80;;
4021;SDS011;2025;48.260;16.432;2022-09-03T06:00:55;3.85;;;3.13;;
4021;SDS011;2025;48.260;16.432;2022-09-03T06:03:22;6.60;;;3.40;;
4021;SDS011;2025;48.260;16.432;2022-09-03T06:05:49;5.90;;;3.47;;
4021;SDS011;2025;48.260;16.432;2022-09-03T06:08:17;13.50;;;3.47;;
4021;SDS011;2025;48.260;16.432;2022-09-03T06:10:44;6.68;;;3.05;;
4021;SDS011;2025;48.260;16.432;2022-09-03T06:13:13;7.95;;;3.42;;
4021;SDS011;2025;48.260;16.432;2022-09-03T06:15:40;9.57;;;3.30;;
4021;SDS011;2025;48.260;16.432;2022-09-03T06:18:07;5.53;;;3.17;;
4021;SDS011;2025;48.260;16.432;2022-09-03T06:20:34;3.25;;;2.95;;
4021;SDS011;2025;48.260;16.432;2022-09-03T06:23:01;5.25;;;2.97;;
4021;SDS011;2025;48.260;16.432;2022-09-03T06:25:28;6.35;;;3.13;;
4021;SDS011;2025;48.260;16.432;2022-09-03T06:27:56;6.57;;;3.00;;
4021;SDS011;2025;48.260;16.432;2022-09-03T06:30:24;7.95;;;3.10;;
4021;SDS011;2025;48.260;16.432;2022-09-03T06:32:54;10.77;;;3.05;;
4021;SDS011;2025;48.260;16.432;2022-09-03T06:35:23;4.32;;;2.80;;
4021;SDS011;2025;48.260;16.432;2022-09-03T06:37:53;5.30;;;2.90;;
4021;SDS011;2025;48.260;16.432;2022-09-03T06:40:22;5.90;;;3.17;;
4021;SDS011;2025;48.260;16.432;2022-09-03T06:42:56;12.35;;;3.25;;
4021;SDS011;2025;48.260;16.432;2022-09-03T06:45:28;6.35;;;3.15;;
4021;SDS011;2025;48.260;16.432;2022-09-03T06:47:55;4.30;;;3.28;;
4021;SDS011;2025;48.260;16.432;2022-09-03T06:50:22;7.68;;;2.90;;
4021;SDS011;2025;48.260;16.432;2022-09-03T06:52:50;6.18;;;3.00;;
4021;SDS011;2025;48.260;16.432;2022-09-03T06:55:19;7.50;;;3.13;;
4021;SDS011;2025;48.260;16.432;2022-09-03T06:57:46;3.30;;;3.00;;
4021;SDS011;2025;48.260;16.432;2022-09-03T07:00:15;6.72;;;3.40;;
4021;SDS011;2025;48.260;16.432;2022-09-03T07:02:43;7.38;;;3.05;;
4021;SDS011;2025;48.260;16.432;2022-09-03T07:05:12;4.15;;;2.78;;
4021;SDS011;2025;48.260;16.432;2022-09-03T07:07:39;8.32;;;2.80;;
4021;SDS011;2025;48.260;16.432;2022-09-03T07:10:08;5.03;;;2.60;;
4021;SDS011;2025;48.260;16.432;2022-09-03T07:12:38;6.60;;;3.08;;
4021;SDS011;2025;48.260;16.432;2022-09-03T07:15:05;6.85;;;3.38;;
4021;SDS011;2025;48.260;16.432;2022-09-03T07:17:33;4.28;;;3.13;;
4021;SDS011;2025;48.260;16.432;2022-09-03T07:20:01;7.03;;;3.13;;
4021;SDS011;2025;48.260;16.432;2022-09-03T07:22:28;12.13;;;3.03;;
4021;SDS011;2025;48.260;16.432;2022-09-03T07:24:58;7.18;;;3.15;;
4021;SDS011;2025;48.260;16.432;2022-09-03T07:27:26;7.18;;;3.40;;
4021;SDS011;2025;48.260;16.432;2022-09-03T07:29:53;4.35;;;2.95;;
4021;SDS011;2025;48.260;16.432;2022-09-03T07:32:20;5.72;;;2.88;;
4021;SDS011;2025;48.260;16.432;2022-09-03T07:34:47;5.45;;;2.92;;
4021;SDS011;2025;48.260;16.432;2022-09-03T07:37:34;3.50;;;3.17;;
4021;SDS011;2025;48.260;16.432;2022-09-03T07:40:02;9.10;;;2.60;;
4021;SDS011;2025;48.260;16.432;2022-09-03T07:42:30;3.58;;;2.50;;
4021;SDS011;2025;48.260;16.432;2022-09-03T07:44:57;6.15;;;2.65;;
4021;SDS011;2025;48.260;16.432;2022-09-03T07:47:23;4.68;;;2.58;;
4021;SDS011;2025;48.260;16.432;2022-09-03T07:49:53;2.55;;;2.35;;
4021;SDS011;2025;48.260;16.432;2022-09-03T07:52:20;2.55;;;2.30;;
4021;SDS011;2025;48.260;16.432;2022-09-03T07:54:51;3.15;;;2.42;;
4021;SDS011;2025;48.260;16.432;2022-09-03T07:57:18;5.18;;;2.20;;
4021;SDS011;2025;48.260;16.432;2022-09-03T07:59:48;4.75;;;2.10;;
4021;SDS011;2025;48.260;16.432;2022-09-03T08:02:15;3.55;;;2.50;;
4021;SDS011;2025;48.260;16.432;2022-09-03T08:04:54;5.30;;;2.30;;
4021;SDS011;2025;48.260;16.432;2022-09-03T08:07:21;2.35;;;2.25;;
4021;SDS011;2025;48.260;16.432;2022-09-03T08:09:48;2.20;;;2.00;;
4021;SDS011;2025;48.260;16.432;2022-09-03T08:12:16;3.17;;;2.00;;
4021;SDS011;2025;48.260;16.432;2022-09-03T08:14:43;5.00;;;2.15;;
4021;SDS011;2025;48.260;16.432;2022-09-03T08:17:10;4.53;;;2.10;;
4021;SDS011;2025;48.260;16.432;2022-09-03T08:19:37;3.03;;;1.80;;
4021;SDS011;2025;48.260;16.432;2022-09-03T08:22:06;2.78;;;2.10;;
4021;SDS011;2025;48.260;16.432;2022-09-03T08:24:34;2.10;;;1.83;;
4021;SDS011;2025;48.260;16.432;2022-09-03T08:27:01;2.90;;;2.17;;
4021;SDS011;2025;48.260;16.432;2022-09-03T08:29:30;2.72;;;2.00;;
4021;SDS011;2025;48.260;16.432;2022-09-03T08:31:57;4.55;;;2.28;;
4021;SDS011;2025;48.260;16.432;2022-09-03T08:34:27;2.42;;;2.03;;
4021;SDS011;2025;48.260;16.432;2022-09-03T08:36:55;8.57;;;2.97;;
4021;SDS011;2025;48.260;16.432;2022-09-03T08:39:28;4.40;;;2.30;;
4021;SDS011;2025;48.260;16.432;2022-09-03T08:42:12;3.70;;;2.03;;
4021;SDS011;2025;48.260;16.432;2022-09-03T08:44:57;3.85;;;1.80;;
4021;SDS011;2025;48.260;16.432;2022-09-03T08:47:35;5.45;;;1.70;;
4021;SDS011;2025;48.260;16.432;2022-09-03T08:50:14;6.15;;;1.85;;
4021;SDS011;2025;48.260;16.432;2022-09-03T08:52:59;2.00;;;1.55;;
4021;SDS011;2025;48.260;16.432;2022-09-03T08:55:48;1.90;;;1.60;;
4021;SDS011;2025;48.260;16.432;2022-09-03T08:58:20;2.92;;;2.00;;
4021;SDS011;2025;48.260;16.432;2022-09-03T09:00:56;2.75;;;1.90;;
4021;SDS011;2025;48.260;16.432;2022-09-03T09:03:37;3.22;;;2.03;;
4021;SDS011;2025;48.260;16.432;2022-09-03T09:06:15;5.10;;;2.00;;
4021;SDS011;2025;48.260;16.432;2022-09-03T09:09:11;4.72;;;1.90;;
4021;SDS011;2025;48.260;16.432;2022-09-03T09:12:04;2.42;;;2.10;;
4021;SDS011;2025;48.260;16.432;2022-09-03T09:14:43;2.28;;;2.00;;
4021;SDS011;2025;48.260;16.432;2022-09-03T09:17:22;5.28;;;2.40;;
4021;SDS011;2025;48.260;16.432;2022-09-03T09:20:11;5.30;;;1.92;;
4021;SDS011;2025;48.260;16.432;2022-09-03T09:22:59;6.85;;;2.22;;
4021;SDS011;2025;48.260;16.432;2022-09-03T09:25:32;4.43;;;2.20;;
4021;SDS011;2025;48.260;16.432;2022-09-03T09:28:09;5.57;;;2.33;;
4021;SDS011;2025;48.260;16.432;2022-09-03T09:30:42;4.60;;;2.03;;
4021;SDS011;2025;48.260;16.432;2022-09-03T09:33:13;5.25;;;1.90;;
4021;SDS011;2025;48.260;16.432;2022-09-03T09:35:40;2.53;;;1.90;;
4021;SDS011;2025;48.260;16.432;2022-09-03T09:38:07;2.10;;;1.90;;
4021;SDS011;2025;48.260;16.432;2022-09-03T09:40:36;2.60;;;2.10;;
4021;SDS011;2025;48.260;16.432;2022-09-03T09:43:04;10.25;;;2.40;;
4021;SDS011;2025;48.260;16.432;2022-09-03T09:45:32;4.95;;;2.00;;
4021;SDS011;2025;48.260;16.432;2022-09-03T09:48:00;7.15;;;1.98;;
4021;SDS011;2025;48.260;16.432;2022-09-03T09:50:33;4.38;;;1.90;;
4021;SDS011;2025;48.260;16.432;2022-09-03T09:53:01;6.38;;;1.80;;
4021;SDS011;2025;48.260;16.432;2022-09-03T09:55:32;4.72;;;2.05;;
4021;SDS011;2025;48.260;16.432;2022-09-03T09:58:04;4.80;;;2.00;;
4021;SDS011;2025;48.260;16.432;2022-09-03T10:00:35;6.15;;;2.05;;
4021;SDS011;2025;48.260;16.432;2022-09-03T10:03:06;2.50;;;2.10;;
4021;SDS011;2025;48.260;16.432;2022-09-03T10:05:39;8.57;;;2.10;;
4021;SDS011;2025;48.260;16.432;2022-09-03T10:08:16;6.30;;;1.95;;
4021;SDS011;2025;48.260;16.432;2022-09-03T10:10:46;2.00;;;1.55;;
4021;SDS011;2025;48.260;16.432;2022-09-03T10:13:17;8.32;;;1.77;;
4021;SDS011;2025;48.260;16.432;2022-09-03T10:16:04;6.75;;;2.20;;
4021;SDS011;2025;48.260;16.432;2022-09-03T10:19:04;6.60;;;1.85;;
4021;SDS011;2025;48.260;16.432;2022-09-03T10:21:40;5.00;;;1.90;;
4021;SDS011;2025;48.260;16.432;2022-09-03T10:24:18;4.43;;;1.60;;
4021;SDS011;2025;48.260;16.432;2022-09-03T10:26:56;1.88;;;1.55;;
4021;SDS011;2025;48.260;16.432;2022-09-03T10:29:23;4.25;;;1.75;;
4021;SDS011;2025;48.260;16.432;2022-09-03T10:31:57;6.05;;;2.33;;
4021;SDS011;2025;48.260;16.432;2022-09-03T10:34:34;4.10;;;1.70;;
4021;SDS011;2025;48.260;16.432;2022-09-03T10:37:17;5.15;;;1.73;;
4021;SDS011;2025;48.260;16.432;2022-09-03T10:39:51;2.60;;;1.80;;
4021;SDS011;2025;48.260;16.432;2022-09-03T10:42:35;2.03;;;1.83;;
4021;SDS011;2025;48.260;16.432;2022-09-03T10:45:16;6.65;;;1.73;;
4021;SDS011;2025;48.260;16.432;2022-09-03T10:48:01;1.70;;;1.60;;
4021;SDS011;2025;48.260;16.432;2022-09-03T10:50:45;3.08;;;1.60;;
4021;SDS011;2025;48.260;16.432;2022-09-03T10:53:19;5.43;;;3.05;;
4021;SDS011;2025;48.260;16.432;2022-09-03T10:55:58;1.77;;;1.67;;
4021;SDS011;2025;48.260;16.432;2022-09-03T10:58:34;4.13;;;2.00;;
4021;SDS011;2025;48.260;16.432;2022-09-03T11:01:13;2.35;;;1.50;;
4021;SDS011;2025;48.260;16.432;2022-09-03T11:03:47;2.35;;;1.60;;
4021;SDS011;2025;48.260;16.432;2022-09-03T11:06:20;2.70;;;1.60;;
4021;SDS011;2025;48.260;16.432;2022-09-03T11:08:54;3.58;;;2.35;;
4021;SDS011;2025;48.260;16.432;2022-09-03T11:11:26;4.50;;;2.33;;
4021;SDS011;2025;48.260;16.432;2022-09-03T11:13:59;3.17;;;2.00;;
4021;SDS011;2025;48.260;16.432;2022-09-03T11:16:32;4.60;;;1.90;;
4021;SDS011;2025;48.260;16.432;2022-09-03T11:19:06;4.75;;;1.80;;
4021;SDS011;2025;48.260;16.432;2022-09-03T11:21:36;8.77;;;1.77;;
4021;SDS011;2025;48.260;16.432;2022-09-03T11:24:08;6.80;;;1.80;;
4021;SDS011;2025;48.260;16.432;2022-09-03T11:26:39;3.33;;;1.70;;
4021;SDS011;2025;48.260;16.432;2022-09-03T11:29:10;7.18;;;3.75;;
4021;SDS011;2025;48.260;16.432;2022-09-03T11:31:48;4.00;;;1.80;;
4021;SDS011;2025;48.260;16.432;2022-09-03T11:34:27;2.20;;;1.58;;
4021;SDS011;2025;48.260;16.432;2022-09-03T11:37:06;1.60;;;1.50;;
4021;SDS011;2025;48.260;16.432;2022-09-03T11:39:44;3.03;;;1.60;;
4021;SDS011;2025;48.260;16.432;2022-09-03T11:42:24;2.58;;;1.67;;
4021;SDS011;2025;48.260;16.432;2022-09-03T11:44:59;2.15;;;1.95;;
4021;SDS011;2025;48.260;16.432;2022-09-03T11:47:38;1.73;;;1.63;;
4021;SDS011;2025;48.260;16.432;2022-09-03T11:50:07;1.75;;;1.58;;
4021;SDS011;2025;48.260;16.432;2022-09-03T11:52:45;1.95;;;1.80;;
4021;SDS011;2025;48.260;16.432;2022-09-03T11:55:24;4.28;;;1.52;;
4021;SDS011;2025;48.260;16.432;2022-09-03T11:57:56;3.15;;;1.45;;
4021;SDS011;2025;48.260;16.432;2022-09-03T12:00:24;2.33;;;1.50;;
4021;SDS011;2025;48.260;16.432;2022-09-03T12:02:53;2.47;;;1.55;;
4021;SDS011;2025;48.260;16.432;2022-09-03T12:05:25;2.08;;;1.65;;
4021;SDS011;2025;48.260;16.432;2022-09-03T12:08:09;4.40;;;1.50;;
4021;SDS011;2025;48.260;16.432;2022-09-03T12:10:54;1.90;;;1.42;;
4021;SDS011;2025;48.260;16.432;2022-09-03T12:13:32;12.60;;;2.28;;
4021;SDS011;2025;48.260;16.432;2022-09-03T12:16:21;7.30;;;1.60;;
4021;SDS011;2025;48.260;16.432;2022-09-03T12:19:02;1.30;;;1.20;;
4021;SDS011;2025;48.260;16.432;2022-09-03T12:21:36;1.83;;;1.52;;
4021;SDS011;2025;48.260;16.432;2022-09-03T12:24:05;6.13;;;1.50;;
4021;SDS011;2025;48.260;16.432;2022-09-03T12:26:39;2.63;;;1.40;;
4021;SDS011;2025;48.260;16.432;2022-09-03T12:31:46;5.60;;;1.60;;
4021;SDS011;2025;48.260;16.432;2022-09-03T12:34:16;1.73;;;1.42;;
4021;SDS011;2025;48.260;16.432;2022-09-03T12:36:45;3.55;;;1.48;;
4021;SDS011;2025;48.260;16.432;2022-09-03T12:39:14;1.40;;;1.30;;
4021;SDS011;2025;48.260;16.432;2022-09-03T12:44:28;2.75;;;1.48;;
4021;SDS011;2025;48.260;16.432;2022-09-03T12:47:02;1.60;;;1.50;;
4021;SDS011;2025;48.260;16.432;2022-09-03T12:49:34;4.05;;;2.40;;
4021;SDS011;2025;48.260;16.432;2022-09-03T12:52:04;4.43;;;1.63;;
4021;SDS011;2025;48.260;16.432;2022-09-03T12:54:38;4.95;;;1.60;;
4021;SDS011;2025;48.260;16.432;2022-09-03T12:57:13;4.10;;;1.70;;
4021;SDS011;2025;48.260;16.432;2022-09-03T12:59:45;1.65;;;1.55;;
4021;SDS011;2025;48.260;16.432;2022-09-03T13:02:18;4.22;;;1.73;;
4021;SDS011;2025;48.260;16.432;2022-09-03T13:04:51;7.55;;;1.77;;
4021;SDS011;2025;48.260;16.432;2022-09-03T13:07:21;2.78;;;1.50;;
4021;SDS011;2025;48.260;16.432;2022-09-03T13:09:51;4.43;;;1.38;;
4021;SDS011;2025;48.260;16.432;2022-09-03T13:12:31;3.70;;;1.45;;
4021;SDS011;2025;48.260;16.432;2022-09-03T13:15:04;1.75;;;1.30;;
4021;SDS011;2025;48.260;16.432;2022-09-03T13:17:38;7.13;;;1.60;;
4021;SDS011;2025;48.260;16.432;2022-09-03T13:20:24;3.92;;;1.50;;
4021;SDS011;2025;48.260;16.432;2022-09-03T13:23:05;2.58;;;1.27;;
4021;SDS011;2025;48.260;16.432;2022-09-03T13:25:47;2.33;;;1.27;;
4021;SDS011;2025;48.260;16.432;2022-09-03T13:28:27;2.03;;;1.33;;
4021;SDS011;2025;48.260;16.432;2022-09-03T13:31:08;3.72;;;1.30;;
4021;SDS011;2025;48.260;16.432;2022-09-03T13:33:44;1.75;;;1.27;;
4021;SDS011;2025;48.260;16.432;2022-09-03T13:36:18;5.05;;;1.42;;
4021;SDS011;2025;48.260;16.432;2022-09-03T13:38:49;1.80;;;1.40;;
4021;SDS011;2025;48.260;16.432;2022-09-03T13:41:27;4.35;;;1.40;;
4021;SDS011;2025;48.260;16.432;2022-09-03T13:44:03;1.42;;;1.33;;
4021;SDS011;2025;48.260;16.432;2022-09-03T13:46:34;1.70;;;1.30;;
4021;SDS011;2025;48.260;16.432;2022-09-03T13:49:12;1.52;;;1.42;;
4021;SDS011;2025;48.260;16.432;2022-09-03T13:52:04;1.98;;;1.40;;
4021;SDS011;2025;48.260;16.432;2022-09-03T13:54:48;1.75;;;1.65;;
4021;SDS011;2025;48.260;16.432;2022-09-03T13:57:22;1.80;;;1.38;;
4021;SDS011;2025;48.260;16.432;2022-09-03T13:59:59;2.70;;;1.40;;
4021;SDS011;2025;48.260;16.432;2022-09-03T14:02:32;2.35;;;1.20;;
4021;SDS011;2025;48.260;16.432;2022-09-03T14:05:18;3.50;;;1.30;;
4021;SDS011;2025;48.260;16.432;2022-09-03T14:08:03;4.05;;;1.13;;
4021;SDS011;2025;48.260;16.432;2022-09-03T14:10:43;4.63;;;1.58;;
4021;SDS011;2025;48.260;16.432;2022-09-03T14:13:21;1.50;;;1.40;;
4021;SDS011;2025;48.260;16.432;2022-09-03T14:15:59;4.63;;;1.52;;
4021;SDS011;2025;48.260;16.432;2022-09-03T14:18:38;3.35;;;1.60;;
4021;SDS011;2025;48.260;16.432;2022-09-03T14:21:12;2.80;;;1.23;;
4021;SDS011;2025;48.260;16.432;2022-09-03T14:23:44;3.17;;;1.30;;
4021;SDS011;2025;48.260;16.432;2022-09-03T14:26:17;6.70;;;1.60;;
4021;SDS011;2025;48.260;16.432;2022-09-03T14:28:47;1.50;;;1.40;;
4021;SDS011;2025;48.260;16.432;2022-09-03T14:31:20;3.45;;;1.50;;
4021;SDS011;2025;48.260;16.432;2022-09-03T14:33:57;5.25;;;1.50;;
4021;SDS011;2025;48.260;16.432;2022-09-03T14:36:31;3.03;;;1.30;;
4021;SDS011;2025;48.260;16.432;2022-09-03T14:42:00;2.22;;;1.40;;
4021;SDS011;2025;48.260;16.432;2022-09-03T14:44:54;1.95;;;1.77;;
4021;SDS011;2025;48.260;16.432;2022-09-03T14:47:41;2.20;;;1.40;;
4021;SDS011;2025;48.260;16.432;2022-09-03T14:50:21;1.30;;;1.30;;
4021;SDS011;2025;48.260;16.432;2022-09-03T14:53:05;3.17;;;1.55;;
4021;SDS011;2025;48.260;16.432;2022-09-03T14:55:52;1.50;;;1.40;;
4021;SDS011;2025;48.260;16.432;2022-09-03T14:58:34;2.90;;;1.80;;
4021;SDS011;2025;48.260;16.432;2022-09-03T15:01:11;1.60;;;1.50;;
4021;SDS011;2025;48.260;16.432;2022-09-03T15:06:55;1.38;;;1.27;;
4021;SDS011;2025;48.260;16.432;2022-09-03T15:09:36;4.05;;;1.50;;
4021;SDS011;2025;48.260;16.432;2022-09-03T15:12:09;4.13;;;1.48;;
4021;SDS011;2025;48.260;16.432;2022-09-03T15:14:45;3.33;;;1.40;;
4021;SDS011;2025;48.260;16.432;2022-09-03T15:17:26;5.45;;;1.48;;
4021;SDS011;2025;48.260;16.432;2022-09-03T15:23:07;1.30;;;1.20;;
4021;SDS011;2025;48.260;16.432;2022-09-03T15:28:51;4.28;;;1.60;;
4021;SDS011;2025;48.260;16.432;2022-09-03T15:31:28;3.05;;;1.52;;
4021;SDS011;2025;48.260;16.432;2022-09-03T15:34:10;2.88;;;1.60;;
4021;SDS011;2025;48.260;16.432;2022-09-03T15:36:53;1.85;;;1.75;;
4021;SDS011;2025;48.260;16.432;2022-09-03T15:39:24;4.63;;;1.60;;
4021;SDS011;2025;48.260;16.432;2022-09-03T15:41:59;1.48;;;1.38;;
4021;SDS011;2025;48.260;16.432;2022-09-03T15:44:33;2.78;;;1.45;;
4021;SDS011;2025;48.260;16.432;2022-09-03T15:47:05;9.18;;;1.83;;
4021;SDS011;2025;48.260;16.432;2022-09-03T15:49:36;4.60;;;1.30;;
4021;SDS011;2025;48.260;16.432;2022-09-03T15:52:25;2.13;;;1.48;;
4021;SDS011;2025;48.260;16.432;2022-09-03T15:55:00;1.40;;;1.30;;